Time;durP1;ratioP1;P1;durP2;ratioP2;P2;SDS_P1;SDS_P2;PMS_P1;PMS_P2;Temp;Humidity;BMP_temperature;BMP_pressure;BME280_temperature;BME280_humidity;BME280_pressure;Samples;Min_cycle;Max_cycle;Signal;HPM_P1;HPM_P2
2022/06/20 00:00:58;;;;;;;7.85;1.90;;;14.10;99.90;;;;;;5081533;28;20048;-48
2022/06/20 00:03:37;;;;;;;7.97;2.00;;;14.00;99.90;;;;;;5082891;28;20067;-50
2022/06/20 00:06:03;;;;;;;9.27;1.92;;;14.00;99.90;;;;;;5082379;28;20064;-49
2022/06/20 00:08:28;;;;;;;6.80;1.80;;;13.90;99.90;;;;;;5082587;28;20074;-48
2022/06/20 00:10:54;;;;;;;8.40;1.60;;;13.90;99.90;;;;;;5081515;28;20071;-49
2022/06/20 00:13:32;;;;;;;10.15;2.10;;;13.80;99.90;;;;;;5081554;28;20030;-48
2022/06/20 00:16:00;;;;;;;10.00;2.05;;;13.80;99.90;;;;;;5082479;28;20044;-48
2022/06/20 00:18:30;;;;;;;9.48;1.98;;;13.80;99.90;;;;;;5082499;28;20111;-46
2022/06/20 00:20:55;;;;;;;9.25;1.85;;;13.80;99.90;;;;;;5082649;28;20024;-49
2022/06/20 00:23:22;;;;;;;10.20;2.10;;;13.80;99.90;;;;;;5082676;28;20030;-49
2022/06/20 00:25:47;;;;;;;6.88;1.58;;;13.80;99.90;;;;;;5082381;28;20035;-48
2022/06/20 00:28:15;;;;;;;5.97;1.75;;;13.80;99.90;;;;;;5082831;28;20040;-46
2022/06/20 00:30:41;;;;;;;7.53;2.10;;;13.80;99.90;;;;;;5082740;28;20527;-50
2022/06/20 00:33:07;;;;;;;11.05;2.10;;;13.80;99.90;;;;;;5082762;28;20036;-45
2022/06/20 00:35:34;;;;;;;7.72;1.80;;;13.80;99.90;;;;;;5082365;28;20050;-47
2022/06/20 00:38:03;;;;;;;7.20;2.00;;;13.80;99.90;;;;;;5082479;28;20082;-46
2022/06/20 00:40:39;;;;;;;10.13;2.03;;;13.80;99.90;;;;;;5085668;28;20025;-45
2022/06/20 00:43:09;;;;;;;9.27;2.10;;;13.70;99.90;;;;;;5086570;28;20051;-47
2022/06/20 00:45:40;;;;;;;9.88;1.92;;;13.70;99.90;;;;;;5084380;28;20047;-49
2022/06/20 00:48:23;;;;;;;7.70;1.75;;;13.70;99.90;;;;;;5085912;28;20068;-47
2022/06/20 00:50:53;;;;;;;7.22;1.88;;;13.70;99.90;;;;;;5085295;28;20179;-47
2022/06/20 00:53:46;;;;;;;9.25;2.08;;;13.70;99.90;;;;;;5085816;28;20028;-48
2022/06/20 00:56:23;;;;;;;10.68;2.30;;;13.60;99.90;;;;;;5085690;28;20040;-45
2022/06/20 00:58:56;;;;;;;9.43;2.10;;;13.60;99.90;;;;;;5085775;28;20063;-46
2022/06/20 01:01:30;;;;;;;6.57;2.45;;;13.60;99.90;;;;;;5084679;28;20043;-47
2022/06/20 01:04:03;;;;;;;7.95;2.28;;;14.50;99.90;;;;;;5085442;28;20084;-46
2022/06/20 01:06:35;;;;;;;9.77;2.50;;;13.50;99.90;;;;;;5085941;28;20432;-47
2022/06/20 01:09:08;;;;;;;8.68;2.40;;;13.40;99.90;;;;;;5086175;28;20040;-49
2022/06/20 01:11:50;;;;;;;9.30;2.40;;;13.50;99.90;;;;;;5084558;28;20402;-50
2022/06/20 01:14:27;;;;;;;9.57;2.60;;;13.60;99.90;;;;;;5086807;28;20036;-48
2022/06/20 01:16:57;;;;;;;8.57;2.10;;;13.40;99.90;;;;;;5085763;28;20036;-48
2022/06/20 01:19:51;;;;;;;9.40;2.65;;;13.40;99.90;;;;;;5085901;28;20054;-48
2022/06/20 01:22:38;;;;;;;8.98;2.45;;;13.50;99.90;;;;;;5085305;28;20044;-46
2022/06/20 01:25:37;;;;;;;8.45;2.45;;;13.40;99.90;;;;;;5085567;28;20040;-46
2022/06/20 01:28:05;;;;;;;10.75;2.50;;;13.40;99.90;;;;;;5100149;28;20043;-47
2022/06/20 01:30:35;;;;;;;11.88;2.20;;;13.40;99.90;;;;;;5084853;28;20562;-48
2022/06/20 01:33:01;;;;;;;10.75;2.28;;;13.40;99.90;;;;;;5085586;28;20368;-47
2022/06/20 01:38:14;;;;;;;8.20;2.25;;;13.40;99.90;;;;;;5085229;28;20131;-48
2022/06/20 01:42:18;;;;;;;10.48;2.72;;;13.40;99.90;;;;;;5085223;28;20038;-45
2022/06/20 01:43:30;;;;;;;9.13;2.10;;;13.40;99.90;;;;;;5083610;28;20070;-45
2022/06/20 01:45:59;;;;;;;10.02;2.08;;;13.40;99.90;;;;;;5085186;28;20040;-48
2022/06/20 01:48:29;;;;;;;8.52;2.90;;;13.50;99.90;;;;;;5084820;28;20066;-46
2022/06/20 01:50:56;;;;;;;8.27;2.70;;;13.40;99.90;;;;;;5085286;28;20047;-46
2022/06/20 01:53:26;;;;;;;6.75;2.08;;;13.40;99.90;;;;;;5085317;28;20138;-47
2022/06/20 01:55:55;;;;;;;6.85;2.45;;;13.30;99.90;;;;;;5084888;28;20441;-46
2022/06/20 01:58:21;;;;;;;8.35;2.03;;;13.30;99.90;;;;;;5084789;28;20119;-50
2022/06/20 02:00:47;;;;;;;7.55;2.35;;;13.30;99.90;;;;;;5084588;28;20046;-50
2022/06/20 02:03:19;;;;;;;8.63;2.15;;;13.20;99.90;;;;;;5084722;28;20043;-46
2022/06/20 02:05:48;;;;;;;6.75;2.15;;;13.20;99.90;;;;;;5084915;28;20502;-47
2022/06/20 02:08:18;;;;;;;7.05;1.95;;;13.20;99.90;;;;;;5084389;28;20123;-49
2022/06/20 02:11:00;;;;;;;9.02;1.77;;;13.20;99.90;;;;;;5085207;28;20392;-45
2022/06/20 02:13:28;;;;;;;7.20;2.20;;;13.20;99.90;;;;;;5084536;28;20047;-46
2022/06/20 02:16:00;;;;;;;7.88;2.30;;;13.20;99.90;;;;;;5084290;28;20048;-45
2022/06/20 02:18:29;;;;;;;8.02;2.20;;;13.10;99.90;;;;;;5083981;28;20060;-51
2022/06/20 02:21:04;;;;;;;7.45;2.20;;;13.10;99.90;;;;;;5082713;28;20036;-47
2022/06/20 02:23:36;;;;;;;8.27;2.15;;;13.10;99.90;;;;;;5084794;28;20122;-46
2022/06/20 02:26:05;;;;;;;5.57;2.30;;;13.10;99.90;;;;;;5084061;28;20463;-46
2022/06/20 02:28:37;;;;;;;8.35;2.30;;;13.00;99.90;;;;;;5083384;28;20035;-46
2022/06/20 02:31:06;;;;;;;8.25;2.30;;;13.00;99.90;;;;;;5084400;28;20126;-47
2022/06/20 02:33:33;;;;;;;8.18;2.42;;;12.90;99.90;;;;;;5082640;28;20141;-50
2022/06/20 02:36:00;;;;;;;7.78;2.38;;;12.80;99.90;;;;;;5083914;28;20040;-48
2022/06/20 02:38:27;;;;;;;7.43;2.42;;;12.80;99.90;;;;;;5083580;28;20403;-47
2022/06/20 02:40:55;;;;;;;6.10;2.33;;;12.80;99.90;;;;;;5084326;28;20521;-48
2022/06/20 02:43:49;;;;;;;7.32;2.30;;;12.70;99.90;;;;;;5084107;28;20138;-47
2022/06/20 02:46:19;;;;;;;8.88;2.38;;;12.60;99.90;;;;;;5084360;28;20032;-48
2022/06/20 02:48:49;;;;;;;9.40;2.47;;;12.60;99.90;;;;;;5082885;28;20685;-47
2022/06/20 02:51:20;;;;;;;7.13;2.30;;;12.60;99.90;;;;;;5082780;28;20039;-47
2022/06/20 02:54:07;;;;;;;9.10;2.17;;;12.60;99.90;;;;;;5083784;28;20032;-46
2022/06/20 02:56:44;;;;;;;6.88;2.17;;;12.50;99.90;;;;;;5083038;28;20042;-47
2022/06/20 02:59:24;;;;;;;7.80;2.00;;;12.50;99.90;;;;;;5083891;28;20193;-47
2022/06/20 03:02:09;;;;;;;12.48;2.40;;;12.30;99.90;;;;;;5082219;28;20430;-47
2022/06/20 03:04:44;;;;;;;4.55;1.80;;;12.50;99.90;;;;;;5083546;28;20028;-49
2022/06/20 03:07:18;;;;;;;10.10;2.10;;;12.40;99.90;;;;;;5082842;28;20044;-46
2022/06/20 03:09:46;;;;;;;7.65;2.20;;;12.30;99.90;;;;;;5083213;28;20040;-48
2022/06/20 03:12:13;;;;;;;6.85;1.80;;;12.30;99.90;;;;;;5083598;28;20032;-47
2022/06/20 03:14:48;;;;;;;6.15;2.00;;;12.30;99.90;;;;;;5083900;28;20067;-48
2022/06/20 03:17:20;;;;;;;5.35;2.03;;;12.30;99.90;;;;;;5083100;28;20032;-50
2022/06/20 03:19:49;;;;;;;7.22;2.10;;;12.40;99.90;;;;;;5082788;28;20075;-47
2022/06/20 03:22:20;;;;;;;8.65;2.25;;;12.40;99.90;;;;;;5082656;28;20071;-48
2022/06/20 03:24:49;;;;;;;6.85;2.10;;;12.40;99.90;;;;;;5082894;28;20035;-45
2022/06/20 03:27:25;;;;;;;7.47;2.00;;;12.40;99.90;;;;;;5097930;28;20166;-46
2022/06/20 03:29:55;;;;;;;8.80;2.05;;;12.50;99.90;;;;;;5083358;28;20067;-48
2022/06/20 03:32:25;;;;;;;9.23;2.13;;;12.30;99.90;;;;;;5081346;28;20479;-49
2022/06/20 03:34:53;;;;;;;6.72;1.92;;;12.30;99.90;;;;;;5083401;28;20459;-46
2022/06/20 03:37:19;;;;;;;7.80;2.20;;;12.40;99.90;;;;;;5083043;28;20046;-47
2022/06/20 03:39:47;;;;;;;7.68;2.53;;;12.30;99.90;;;;;;5083277;28;20130;-49
2022/06/20 03:42:13;;;;;;;8.60;2.30;;;12.40;99.90;;;;;;5082644;28;20042;-50
2022/06/20 03:44:45;;;;;;;5.70;1.90;;;12.30;99.90;;;;;;5081749;28;20453;-47
2022/06/20 03:47:22;;;;;;;7.35;2.67;;;12.40;99.90;;;;;;5082795;28;20115;-47
2022/06/20 03:50:02;;;;;;;9.88;2.60;;;12.30;99.90;;;;;;5082278;28;20044;-50
2022/06/20 03:52:35;;;;;;;8.07;2.55;;;12.30;99.90;;;;;;5081961;28;20115;-49
2022/06/20 03:55:05;;;;;;;7.30;2.15;;;12.20;99.90;;;;;;5081570;28;20036;-47
2022/06/20 03:57:36;;;;;;;9.77;3.10;;;12.30;99.90;;;;;;5082415;28;20098;-46
2022/06/20 04:00:08;;;;;;;7.72;2.40;;;12.30;99.90;;;;;;5082788;28;20052;-47
2022/06/20 04:02:36;;;;;;;8.75;2.90;;;12.30;99.90;;;;;;5097710;28;20492;-46
2022/06/20 04:05:08;;;;;;;9.05;2.58;;;12.30;99.90;;;;;;5063971;28;20032;-48
2022/06/20 04:07:44;;;;;;;7.68;2.58;;;12.30;99.90;;;;;;5082422;28;20048;-47
2022/06/20 04:13:54;;;;;;;10.93;3.20;;;12.30;99.90;;;;;;5083745;28;20052;-46
2022/06/20 04:19:56;;;;;;;7.25;2.47;;;12.50;99.90;;;;;;5066625;28;20056;-47
2022/06/20 04:22:27;;;;;;;10.63;2.78;;;12.50;99.90;;;;;;5086779;28;20024;-49
2022/06/20 04:25:25;;;;;;;8.88;2.25;;;12.60;99.90;;;;;;5086440;28;20049;-49
2022/06/20 04:28:24;;;;;;;6.30;1.95;;;12.70;99.90;;;;;;5086504;28;20048;-46
2022/06/20 04:31:02;;;;;;;5.90;2.15;;;12.80;99.90;;;;;;5085075;28;20036;-47
2022/06/20 04:33:35;;;;;;;7.65;2.80;;;12.80;99.90;;;;;;5085492;28;20044;-47
2022/06/20 04:36:31;;;;;;;7.28;2.40;;;12.80;99.90;;;;;;5086682;28;20127;-46
2022/06/20 04:39:24;;;;;;;5.03;2.00;;;12.80;99.90;;;;;;5086639;28;20040;-49
2022/06/20 04:41:50;;;;;;;8.45;2.53;;;12.80;99.90;;;;;;5065245;28;20036;-45
2022/06/20 04:44:28;;;;;;;8.43;2.80;;;12.80;99.90;;;;;;5085137;28;20047;-49
2022/06/20 04:47:09;;;;;;;11.65;3.00;;;12.90;99.90;;;;;;5086008;28;20024;-46
2022/06/20 04:49:37;;;;;;;12.48;3.30;;;12.90;99.90;;;;;;5086463;28;20031;-46
2022/06/20 04:52:03;;;;;;;10.90;3.22;;;12.80;99.90;;;;;;5085241;28;20038;-47
2022/06/20 04:54:29;;;;;;;12.10;3.20;;;12.90;99.90;;;;;;5067926;28;20038;-47
2022/06/20 04:56:55;;;;;;;8.60;2.90;;;12.90;99.90;;;;;;5085927;28;20036;-46
2022/06/20 04:59:28;;;;;;;8.65;2.78;;;13.00;99.90;;;;;;5086575;28;20040;-47
2022/06/20 05:01:58;;;;;;;9.05;2.58;;;13.00;99.90;;;;;;5086056;28;20040;-48
2022/06/20 05:04:27;;;;;;;8.48;2.70;;;13.10;99.90;;;;;;5085786;28;20036;-47
2022/06/20 05:06:55;;;;;;;8.48;2.17;;;13.00;99.90;;;;;;5084412;28;20040;-48
2022/06/20 05:09:38;;;;;;;7.07;2.15;;;13.10;99.90;;;;;;5085959;28;20115;-49
2022/06/20 05:12:12;;;;;;;7.18;2.10;;;13.20;99.90;;;;;;5086083;28;20059;-48
2022/06/20 05:14:49;;;;;;;11.23;2.85;;;13.20;99.90;;;;;;5084271;28;20043;-48
2022/06/20 05:17:25;;;;;;;8.57;2.65;;;13.30;99.90;;;;;;5084626;28;20092;-47
2022/06/20 05:19:55;;;;;;;7.82;2.60;;;13.40;99.90;;;;;;5085891;28;20032;-47
2022/06/20 05:22:29;;;;;;;8.80;2.60;;;13.40;99.90;;;;;;5085646;28;20103;-47
2022/06/20 05:24:58;;;;;;;8.43;2.38;;;13.50;99.90;;;;;;5084585;28;20077;-48
2022/06/20 05:27:47;;;;;;;7.93;2.95;;;13.60;99.90;;;;;;5085943;28;20032;-47
2022/06/20 05:30:19;;;;;;;9.63;2.92;;;13.60;99.90;;;;;;5086262;28;20115;-49
2022/06/20 05:33:09;;;;;;;9.63;2.90;;;13.70;99.90;;;;;;5085833;28;20524;-47
2022/06/20 05:36:10;;;;;;;9.95;3.13;;;13.70;99.90;;;;;;5098796;28;20031;-48
2022/06/20 05:38:46;;;;;;;6.88;2.72;;;13.80;99.90;;;;;;5083540;28;20036;-46
2022/06/20 05:41:16;;;;;;;11.02;3.33;;;13.90;99.90;;;;;;5085188;28;20044;-51
2022/06/20 05:43:42;;;;;;;8.60;2.85;;;13.90;99.90;;;;;;5085283;28;20474;-48
2022/06/20 05:46:18;;;;;;;11.07;3.03;;;13.90;99.90;;;;;;5085317;28;20498;-47
2022/06/20 05:48:50;;;;;;;12.10;2.60;;;14.10;99.90;;;;;;5084646;28;20055;-50
2022/06/20 05:51:19;;;;;;;8.90;2.40;;;14.00;99.90;;;;;;5084358;28;20040;-50
2022/06/20 05:53:56;;;;;;;7.30;2.97;;;14.10;99.90;;;;;;5084759;28;20446;-49
2022/06/20 05:56:39;;;;;;;10.07;2.95;;;14.10;99.90;;;;;;5085420;28;20054;-46
2022/06/20 05:59:06;;;;;;;11.13;3.58;;;14.20;99.90;;;;;;5085051;28;20143;-48
2022/06/20 06:01:39;;;;;;;10.75;3.20;;;14.30;99.90;;;;;;5083833;28;20051;-47
2022/06/20 06:04:16;;;;;;;12.98;3.60;;;14.30;99.90;;;;;;5083776;28;20040;-47
2022/06/20 06:07:00;;;;;;;11.70;3.78;;;14.30;99.90;;;;;;5083483;28;20066;-49
2022/06/20 06:09:57;;;;;;;9.50;3.25;;;14.40;99.90;;;;;;5084436;28;20042;-48
2022/06/20 06:12:31;;;;;;;12.95;3.55;;;14.40;99.90;;;;;;5067560;28;20411;-47
2022/06/20 06:15:11;;;;;;;9.60;2.95;;;14.50;99.90;;;;;;5084511;28;20060;-46
2022/06/20 06:17:52;;;;;;;10.60;3.03;;;14.50;99.90;;;;;;5084469;28;20047;-47
2022/06/20 06:20:21;;;;;;;14.52;3.60;;;14.60;99.90;;;;;;5084358;28;20040;-49
2022/06/20 06:22:50;;;;;;;11.60;3.65;;;14.60;99.90;;;;;;5084107;28;20066;-48
2022/06/20 06:25:30;;;;;;;9.52;3.40;;;14.70;99.90;;;;;;5084217;28;20028;-49
2022/06/20 06:28:00;;;;;;;9.70;3.40;;;14.70;99.90;;;;;;5083466;28;20111;-48
2022/06/20 06:30:41;;;;;;;10.25;3.22;;;14.80;99.90;;;;;;5084666;28;20036;-46
2022/06/20 06:33:20;;;;;;;8.55;3.00;;;14.90;99.90;;;;;;5084001;28;20062;-48
2022/06/20 06:36:00;;;;;;;16.20;4.40;;;15.00;99.90;;;;;;5084273;28;20040;-47
2022/06/20 06:38:35;;;;;;;15.00;3.45;;;15.10;99.90;;;;;;5081622;28;20485;-49
2022/06/20 06:41:06;;;;;;;11.60;3.42;;;15.20;99.90;;;;;;5084384;28;20443;-46
2022/06/20 06:43:41;;;;;;;13.00;3.03;;;15.10;99.90;;;;;;5084187;28;20044;-49
2022/06/20 06:46:15;;;;;;;10.88;3.28;;;14.90;99.90;;;;;;5082612;28;20044;-47
2022/06/20 06:48:47;;;;;;;11.32;3.03;;;14.80;99.90;;;;;;5084013;28;20096;-50
2022/06/20 06:51:40;;;;;;;10.52;3.00;;;14.70;99.90;;;;;;5082851;28;20490;-47
2022/06/20 06:54:12;;;;;;;11.80;3.47;;;14.80;99.90;;;;;;5075442;28;20048;-45
2022/06/20 06:56:44;;;;;;;13.52;3.72;;;14.90;99.90;;;;;;5083349;28;20039;-49
2022/06/20 06:59:20;;;;;;;14.23;3.50;;;15.20;99.90;;;;;;5083796;28;20060;-48
2022/06/20 07:01:50;;;;;;;14.45;3.72;;;15.40;99.90;;;;;;5083515;28;20059;-48
2022/06/20 07:04:38;;;;;;;9.65;3.05;;;15.50;99.90;;;;;;5082110;28;20032;-46
2022/06/20 07:07:26;;;;;;;12.52;3.17;;;15.60;99.90;;;;;;5083573;28;20678;-48
2022/06/20 07:09:54;;;;;;;13.07;3.45;;;15.90;99.90;;;;;;5083449;28;20161;-46
2022/06/20 07:12:39;;;;;;;11.23;3.20;;;15.80;99.90;;;;;;5082748;28;20040;-45
2022/06/20 07:15:18;;;;;;;14.27;2.90;;;15.70;99.90;;;;;;5082958;28;20497;-48
2022/06/20 07:18:11;;;;;;;8.43;2.75;;;15.50;99.90;;;;;;5079787;28;20131;-47
2022/06/20 07:20:40;;;;;;;9.65;2.42;;;15.30;99.90;;;;;;5082376;28;20028;-49
2022/06/20 07:23:11;;;;;;;9.80;2.80;;;15.20;99.90;;;;;;5079301;28;20038;-47
2022/06/20 07:25:42;;;;;;;11.05;3.00;;;15.10;99.90;;;;;;5081132;28;20055;-46
2022/06/20 07:28:34;;;;;;;11.27;2.85;;;15.00;99.90;;;;;;5094682;28;20118;-47
2022/06/20 07:31:09;;;;;;;10.13;2.78;;;14.90;99.90;;;;;;5059779;28;20044;-48
2022/06/20 07:33:43;;;;;;;12.32;2.92;;;14.80;99.90;;;;;;5080549;28;20038;-45
2022/06/20 07:36:12;;;;;;;7.97;2.60;;;15.00;99.90;;;;;;5080529;28;20479;-46
2022/06/20 07:39:01;;;;;;;9.07;2.40;;;15.20;99.90;;;;;;5080658;28;20051;-47
2022/06/20 07:41:38;;;;;;;11.20;2.70;;;15.50;99.90;;;;;;5082622;28;20491;-48
2022/06/20 07:44:12;;;;;;;8.38;2.75;;;15.70;99.90;;;;;;5084669;28;20141;-50
2022/06/20 07:46:48;;;;;;;10.52;2.78;;;15.80;99.90;;;;;;5082042;28;20042;-49
2022/06/20 07:49:32;;;;;;;9.40;3.33;;;15.90;99.90;;;;;;5083884;28;20050;-48
2022/06/20 07:52:06;;;;;;;15.23;3.13;;;16.00;99.90;;;;;;5077743;28;20047;-49
2022/06/20 07:54:39;;;;;;;8.93;1.95;;;16.10;99.90;;;;;;5086482;28;20028;-48
2022/06/20 07:57:24;;;;;;;9.50;2.38;;;16.30;99.90;;;;;;5087646;28;20048;-48
2022/06/20 08:00:16;;;;;;;9.90;2.25;;;16.20;99.90;;;;;;5101768;28;21632;-49
2022/06/20 08:03:14;;;;;;;9.48;2.58;;;16.40;99.90;;;;;;5108843;28;20044;-48
2022/06/20 08:05:48;;;;;;;12.32;2.60;;;16.50;99.90;;;;;;5107014;28;20379;-52
2022/06/20 08:08:34;;;;;;;12.98;3.30;;;16.70;99.90;;;;;;5101885;28;20054;-50
2022/06/20 08:11:06;;;;;;;10.63;2.65;;;17.10;99.90;;;;;;5106791;28;20371;-51
2022/06/20 08:13:34;;;;;;;10.45;2.80;;;17.10;99.90;;;;;;5108721;28;20482;-49
2022/06/20 08:16:28;;;;;;;9.13;2.42;;;16.90;99.90;;;;;;5103298;28;20494;-49
2022/06/20 08:18:53;;;;;;;10.30;2.60;;;16.60;99.90;;;;;;5109417;28;20090;-47
2022/06/20 08:21:22;;;;;;;8.43;2.50;;;16.30;99.90;;;;;;5108497;28;20067;-51
2022/06/20 08:23:52;;;;;;;5.72;1.80;;;16.00;99.90;;;;;;5109525;28;20467;-48
2022/06/20 08:26:52;;;;;;;12.50;2.70;;;16.00;99.90;;;;;;5108726;28;20032;-49
2022/06/20 08:29:26;;;;;;;8.77;2.10;;;16.20;99.90;;;;;;5106265;28;20074;-49
2022/06/20 08:31:57;;;;;;;8.68;2.10;;;16.60;99.90;;;;;;5100141;28;20044;-49
2022/06/20 08:34:50;;;;;;;7.00;1.83;;;16.90;99.90;;;;;;5103449;28;20100;-47
2022/06/20 08:37:25;;;;;;;8.50;1.70;;;16.90;99.90;;;;;;5107161;28;20050;-51
2022/06/20 08:40:15;;;;;;;7.43;1.80;;;17.10;99.90;;;;;;5108605;28;20676;-46
2022/06/20 08:43:17;;;;;;;8.25;2.00;;;17.20;99.90;;;;;;5109501;28;20031;-49
2022/06/20 08:45:49;;;;;;;6.53;1.58;;;17.20;99.90;;;;;;5106142;28;20042;-51
2022/06/20 08:48:39;;;;;;;5.20;1.80;;;17.10;99.90;;;;;;5102918;28;20048;-48
2022/06/20 08:51:05;;;;;;;11.52;2.08;;;17.00;99.90;;;;;;5107192;28;20470;-46
2022/06/20 08:53:49;;;;;;;7.57;1.77;;;16.70;99.90;;;;;;5102698;28;20046;-49
2022/06/20 08:56:27;;;;;;;9.13;2.28;;;16.70;99.90;;;;;;5100283;28;20424;-50
2022/06/20 08:59:16;;;;;;;7.50;1.75;;;16.50;99.90;;;;;;5086349;28;20076;-48
2022/06/20 09:02:06;;;;;;;7.10;1.75;;;16.50;99.90;;;;;;5104615;28;20077;-50
2022/06/20 09:04:47;;;;;;;7.95;2.53;;;16.80;99.90;;;;;;5103507;28;20118;-48
2022/06/20 09:07:46;;;;;;;10.77;2.13;;;17.20;99.90;;;;;;5104180;28;20035;-47
2022/06/20 09:10:40;;;;;;;12.18;2.58;;;17.40;99.90;;;;;;5104552;28;20048;-47
2022/06/20 09:13:24;;;;;;;6.35;1.80;;;17.50;99.90;;;;;;5104139;28;20036;-47
2022/06/20 09:16:12;;;;;;;8.38;1.50;;;17.70;99.90;;;;;;5104045;28;20027;-48
2022/06/20 09:18:47;;;;;;;6.97;1.33;;;17.50;99.90;;;;;;5104250;28;20051;-48
2022/06/20 09:21:21;;;;;;;5.05;1.80;;;18.00;99.90;;;;;;5103694;28;20035;-48
2022/06/20 09:24:05;;;;;;;6.10;1.60;;;18.20;99.90;;;;;;5084365;28;20048;-48
2022/06/20 09:26:42;;;;;;;8.43;1.42;;;18.40;99.90;;;;;;5103856;28;20075;-48
2022/06/20 09:29:20;;;;;;;10.15;1.45;;;18.20;99.90;;;;;;5103599;28;20047;-47
2022/06/20 09:32:34;;;;;;;5.35;1.17;;;17.90;99.90;;;;;;5103929;28;20031;-48
2022/06/20 09:35:17;;;;;;;3.42;1.05;;;18.10;99.90;;;;;;5103220;27;20046;-48
2022/06/20 09:38:01;;;;;;;8.30;1.17;;;18.60;99.90;;;;;;5103550;28;20093;-48
2022/06/20 09:41:05;;;;;;;9.25;1.60;;;18.70;99.90;;;;;;5103846;27;20118;-48
2022/06/20 09:43:46;;;;;;;6.25;1.42;;;18.90;99.90;;;;;;5060913;28;20486;-48
2022/06/20 09:46:39;;;;;;;9.15;1.60;;;19.10;99.90;;;;;;5103417;28;20517;-47
2022/06/20 09:49:23;;;;;;;6.97;1.80;;;19.20;99.80;;;;;;5091488;28;20483;-47
2022/06/20 09:52:05;;;;;;;6.07;1.52;;;19.00;99.80;;;;;;5103152;28;20431;-47
2022/06/20 09:54:53;;;;;;;5.60;1.38;;;19.10;97.50;;;;;;5103456;28;20032;-48
2022/06/20 09:57:44;;;;;;;7.20;1.33;;;18.90;98.80;;;;;;5103256;28;20112;-50
2022/06/20 10:00:17;;;;;;;5.57;1.50;;;18.70;98.80;;;;;;5103518;28;20032;-49
2022/06/20 10:02:42;;;;;;;7.93;1.65;;;18.60;99.70;;;;;;5103726;28;20059;-51
2022/06/20 10:05:47;;;;;;;9.02;1.85;;;18.40;99.90;;;;;;5103267;28;20059;-48
2022/06/20 10:08:39;;;;;;;7.40;1.77;;;18.10;99.90;;;;;;5103594;28;20047;-49
2022/06/20 10:11:33;;;;;;;20.67;3.17;;;17.80;99.90;;;;;;5102828;28;20075;-49
2022/06/20 10:14:20;;;;;;;8.90;1.90;;;17.80;99.90;;;;;;5103739;28;20036;-49
2022/06/20 10:17:14;;;;;;;5.85;1.70;;;18.30;99.90;;;;;;5103070;28;20067;-50
2022/06/20 10:20:19;;;;;;;8.50;1.63;;;18.70;99.90;;;;;;5102904;28;20035;-46
2022/06/20 10:22:48;;;;;;;7.10;1.60;;;19.10;99.90;;;;;;5102787;28;20118;-48
2022/06/20 10:25:19;;;;;;;11.55;2.13;;;19.20;99.90;;;;;;5101899;28;20039;-50
2022/06/20 10:28:04;;;;;;;8.20;1.50;;;18.60;99.90;;;;;;5102384;27;20035;-50
2022/06/20 10:30:46;;;;;;;9.52;2.00;;;18.00;99.90;;;;;;5103130;28;20168;-47
2022/06/20 10:33:30;;;;;;;9.45;1.67;;;18.20;99.90;;;;;;5104326;28;20023;-49
2022/06/20 10:35:55;;;;;;;;;;;18.30;99.90;;;;;;5105613;28;20031;-50
2022/06/20 10:38:32;;;;;;;5.63;1.40;;;18.60;99.90;;;;;;5089872;28;19930;-51
2022/06/20 10:41:30;;;;;;;4.38;1.02;;;19.10;99.90;;;;;;5104703;28;20043;-50
2022/06/20 10:44:15;;;;;;;7.00;1.52;;;19.10;98.60;;;;;;5102943;28;20550;-52
2022/06/20 10:46:52;;;;;;;5.05;1.48;;;19.10;97.50;;;;;;5092105;28;20128;-48
2022/06/20 10:49:57;;;;;;;7.13;1.40;;;19.10;98.50;;;;;;5104477;28;20049;-49
2022/06/20 10:52:29;;;;;;;6.82;1.30;;;19.00;98.70;;;;;;5103244;28;20095;-48
2022/06/20 10:55:24;;;;;;;4.93;1.40;;;19.40;99.20;;;;;;5101840;28;20432;-49
2022/06/20 10:58:13;;;;;;;6.70;1.40;;;19.10;99.40;;;;;;5101377;28;20127;-49
2022/06/20 11:00:46;;;;;;;7.93;1.63;;;18.70;98.70;;;;;;5103522;27;20067;-46
2022/06/20 11:03:29;;;;;;;6.78;1.75;;;19.20;99.60;;;;;;5102256;28;20036;-49
2022/06/20 11:06:42;;;;;;;7.30;1.77;;;19.50;99.90;;;;;;5081392;28;20089;-48
2022/06/20 11:09:27;;;;;;;6.72;1.90;;;19.10;99.90;;;;;;5082130;28;20107;-48
2022/06/20 11:12:04;;;;;;;6.88;1.77;;;19.50;99.90;;;;;;5101702;28;20067;-47
2022/06/20 11:14:57;;;;;;;5.15;1.30;;;19.60;99.90;;;;;;5102002;28;20070;-50
2022/06/20 11:17:39;;;;;;;7.63;1.55;;;19.70;98.90;;;;;;5101531;28;20136;-48
2022/06/20 11:20:21;;;;;;;9.88;1.52;;;19.90;99.00;;;;;;5102310;28;20134;-49
2022/06/20 11:23:11;;;;;;;8.32;1.60;;;19.60;99.60;;;;;;5096832;28;20388;-47
2022/06/20 11:25:49;;;;;;;9.73;1.60;;;18.70;99.90;;;;;;5099169;27;20411;-50
2022/06/20 11:28:30;;;;;;;36.55;4.43;;;19.00;99.50;;;;;;5098083;27;20482;-47
2022/06/20 11:31:07;;;;;;;18.35;3.30;;;19.40;99.90;;;;;;5097427;28;20528;-48
2022/06/20 11:34:08;;;;;;;11.45;1.70;;;19.70;99.40;;;;;;5096895;28;20115;-48
2022/06/20 11:37:04;;;;;;;8.80;1.83;;;19.60;98.70;;;;;;5096240;28;20114;-52
2022/06/20 11:39:36;;;;;;;7.55;2.08;;;19.90;99.40;;;;;;5099817;28;20043;-51
2022/06/20 11:42:26;;;;;;;8.52;1.70;;;20.10;99.80;;;;;;5079078;28;20035;-48
2022/06/20 11:45:03;;;;;;;5.60;1.77;;;20.30;99.10;;;;;;5077222;28;20042;-46
2022/06/20 11:47:51;;;;;;;10.02;2.10;;;20.40;99.30;;;;;;5098052;28;20128;-49
2022/06/20 11:50:49;;;;;;;8.88;1.63;;;20.30;99.20;;;;;;5097600;28;20047;-49
2022/06/20 11:53:19;;;;;;;8.32;2.00;;;20.40;98.30;;;;;;5096563;28;20044;-45
2022/06/20 11:55:53;;;;;;;9.27;1.98;;;20.30;98.70;;;;;;5097008;28;20127;-47
2022/06/20 11:58:25;;;;;;;7.72;1.90;;;20.20;99.90;;;;;;5096688;28;20062;-49
2022/06/20 12:00:57;;;;;;;5.75;1.40;;;20.30;98.80;;;;;;5098004;28;20062;-50
2022/06/20 12:03:44;;;;;;;5.57;1.20;;;20.30;97.50;;;;;;5105863;28;20042;-46
2022/06/20 12:06:25;;;;;;;5.30;1.20;;;20.20;96.90;;;;;;5101672;28;20042;-47
2022/06/20 12:09:01;;;;;;;7.82;1.70;;;20.40;97.00;;;;;;5106834;28;20043;-47
2022/06/20 12:11:30;;;;;;;13.95;2.17;;;20.60;97.20;;;;;;5109060;28;20062;-48
2022/06/20 12:14:14;;;;;;;4.38;1.38;;;20.60;98.20;;;;;;5109847;28;20035;-47
2022/06/20 12:17:06;;;;;;;5.47;1.15;;;20.60;95.90;;;;;;5109585;28;20493;-48
2022/06/20 12:25:32;;;;;;;10.73;2.00;;;20.40;97.40;;;;;;5109793;28;20385;-47
2022/06/20 12:27:58;;;;;;;5.10;1.38;;;20.50;97.60;;;;;;5109670;28;20119;-45
2022/06/20 12:30:24;;;;;;;6.38;1.35;;;20.60;96.40;;;;;;5109720;28;20500;-48
2022/06/20 12:32:53;;;;;;;8.48;1.75;;;20.60;96.80;;;;;;5109108;28;20075;-48
2022/06/20 12:35:22;;;;;;;5.68;1.13;;;20.50;96.80;;;;;;5112080;28;20039;-50
2022/06/20 12:37:47;;;;;;;10.20;1.65;;;20.80;96.90;;;;;;5111959;28;20036;-49
2022/06/20 12:40:27;;;;;;;5.20;1.48;;;21.20;97.70;;;;;;5095541;28;20466;-46
2022/06/20 12:43:16;;;;;;;6.15;1.38;;;21.50;97.90;;;;;;5094636;28;20054;-46
2022/06/20 12:46:09;;;;;;;6.75;1.20;;;21.30;95.50;;;;;;5113053;28;20031;-50
2022/06/20 12:49:03;;;;;;;12.50;1.92;;;21.60;93.40;;;;;;5113589;28;20058;-48
2022/06/20 12:52:02;;;;;;;4.95;1.25;;;21.20;94.60;;;;;;5112908;28;20828;-47
2022/06/20 12:54:37;;;;;;;5.80;1.42;;;21.30;94.50;;;;;;5113475;28;20124;-48
2022/06/20 12:57:40;;;;;;;5.20;1.42;;;21.60;95.50;;;;;;5112771;27;20047;-48
2022/06/20 13:00:23;;;;;;;5.40;1.48;;;21.50;95.60;;;;;;5113228;27;20047;-47
2022/06/20 13:03:07;;;;;;;4.65;1.38;;;21.60;95.80;;;;;;5112480;28;20034;-49
2022/06/20 13:05:44;;;;;;;4.53;1.50;;;21.80;96.30;;;;;;5111758;27;20446;-49
2022/06/20 13:08:16;;;;;;;6.85;1.70;;;21.90;95.80;;;;;;5112687;27;20043;-46
2022/06/20 13:11:08;;;;;;;3.95;1.42;;;21.90;94.70;;;;;;5113809;27;20491;-49
2022/06/20 13:13:40;;;;;;;4.82;1.30;;;21.60;94.60;;;;;;5111308;28;20080;-45
2022/06/20 13:16:09;;;;;;;5.18;1.48;;;21.60;94.80;;;;;;5111752;28;20031;-51
2022/06/20 13:18:54;;;;;;;5.40;1.35;;;21.60;94.80;;;;;;5112007;28;20039;-47
2022/06/20 13:21:41;;;;;;;5.88;1.40;;;22.10;95.40;;;;;;5093670;28;20048;-47
2022/06/20 13:24:25;;;;;;;5.13;1.30;;;21.70;95.80;;;;;;5112822;28;20040;-47
2022/06/20 13:27:14;;;;;;;2.90;1.13;;;22.00;95.60;;;;;;5112859;28;20086;-47
2022/06/20 13:30:01;;;;;;;7.05;1.67;;;22.20;95.50;;;;;;5112458;28;20453;-47
2022/06/20 13:32:55;;;;;;;4.65;1.35;;;22.20;94.40;;;;;;5112356;27;20428;-51
2022/06/20 13:35:24;;;;;;;;;;;22.20;93.80;;;;;;5113187;28;20084;-47
2022/06/20 13:38:11;;;;;;;5.47;1.40;;;21.80;95.00;;;;;;5112547;28;20359;-50
2022/06/20 13:40:54;;;;;;;5.55;1.38;;;22.00;94.90;;;;;;5112642;28;20123;-49
2022/06/20 13:43:39;;;;;;;5.55;1.33;;;22.00;94.80;;;;;;5111737;27;20035;-50
2022/06/20 13:46:22;;;;;;;3.42;1.23;;;21.90;94.00;;;;;;5100883;27;20414;-52
2022/06/20 13:49:11;;;;;;;8.45;1.42;;;21.80;94.20;;;;;;5102499;28;20502;-47
2022/06/20 13:51:51;;;;;;;3.67;1.30;;;21.70;93.80;;;;;;5102801;27;20035;-47
2022/06/20 13:54:52;;;;;;;4.93;1.25;;;22.20;93.90;;;;;;5103124;28;20039;-48
2022/06/20 13:57:29;;;;;;;5.07;1.52;;;22.40;94.20;;;;;;5103304;28;20067;-47